sensor_id;sensor_type;location;lat;lon;timestamp;P1;durP1;ratioP1;P2;durP2;ratioP2
28158;SDS011;15447;50.828;4.406;2023-11-19T06:31:19;40.25;;;6.18;;
28158;SDS011;15447;50.828;4.406;2023-11-19T06:33:45;42.90;;;5.78;;
28158;SDS011;15447;50.828;4.406;2023-11-19T06:36:13;43.70;;;6.40;;
28158;SDS011;15447;50.828;4.406;2023-11-19T06:38:41;45.72;;;6.75;;
28158;SDS011;15447;50.828;4.406;2023-11-19T06:41:07;44.92;;;6.10;;
28158;SDS011;15447;50.828;4.406;2023-11-19T06:43:34;41.05;;;5.90;;
28158;SDS011;15447;50.828;4.406;2023-11-19T06:46:00;36.53;;;4.85;;
28158;SDS011;15447;50.828;4.406;2023-11-19T06:48:26;42.35;;;6.10;;
28158;SDS011;15447;50.828;4.406;2023-11-19T06:50:55;39.83;;;5.03;;
28158;SDS011;15447;50.828;4.406;2023-11-19T06:53:20;47.65;;;6.35;;
28158;SDS011;15447;50.828;4.406;2023-11-19T06:55:46;37.15;;;4.97;;
28158;SDS011;15447;50.828;4.406;2023-11-19T06:58:12;35.60;;;5.70;;
28158;SDS011;15447;50.828;4.406;2023-11-19T07:00:37;50.13;;;5.78;;
28158;SDS011;15447;50.828;4.406;2023-11-19T07:03:03;42.53;;;5.90;;
28158;SDS011;15447;50.828;4.406;2023-11-19T07:05:30;45.70;;;5.22;;
28158;SDS011;15447;50.828;4.406;2023-11-19T07:08:00;38.00;;;5.95;;
28158;SDS011;15447;50.828;4.406;2023-11-19T07:10:26;50.05;;;5.57;;
28158;SDS011;15447;50.828;4.406;2023-11-19T07:12:52;40.40;;;6.18;;
28158;SDS011;15447;50.828;4.406;2023-11-19T07:15:18;37.60;;;5.63;;
28158;SDS011;15447;50.828;4.406;2023-11-19T07:17:44;50.63;;;6.60;;
28158;SDS011;15447;50.828;4.406;2023-11-19T07:20:10;51.83;;;6.28;;
28158;SDS011;15447;50.828;4.406;2023-11-19T07:22:38;49.70;;;6.47;;
28158;SDS011;15447;50.828;4.406;2023-11-19T07:25:04;36.90;;;5.88;;
28158;SDS011;15447;50.828;4.406;2023-11-19T07:27:30;48.85;;;6.28;;
28158;SDS011;15447;50.828;4.406;2023-11-19T07:29:56;33.63;;;5.57;;
28158;SDS011;15447;50.828;4.406;2023-11-19T07:32:22;36.42;;;5.53;;
28158;SDS011;15447;50.828;4.406;2023-11-19T07:34:48;39.38;;;6.38;;
28158;SDS011;15447;50.828;4.406;2023-11-19T07:37:14;41.85;;;6.40;;
28158;SDS011;15447;50.828;4.406;2023-11-19T07:39:39;42.60;;;5.97;;
28158;SDS011;15447;50.828;4.406;2023-11-19T07:42:06;42.60;;;6.00;;
28158;SDS011;15447;50.828;4.406;2023-11-19T07:44:32;49.95;;;7.10;;
28158;SDS011;15447;50.828;4.406;2023-11-19T07:46:58;39.40;;;6.82;;
28158;SDS011;15447;50.828;4.406;2023-11-19T07:49:23;41.17;;;6.20;;
28158;SDS011;15447;50.828;4.406;2023-11-19T07:51:49;34.53;;;6.15;;
28158;SDS011;15447;50.828;4.406;2023-11-19T07:54:15;34.97;;;6.18;;
28158;SDS011;15447;50.828;4.406;2023-11-19T07:56:40;42.63;;;5.82;;
28158;SDS011;15447;50.828;4.406;2023-11-19T07:59:09;36.65;;;5.78;;
28158;SDS011;15447;50.828;4.406;2023-11-19T08:01:37;32.88;;;5.20;;
28158;SDS011;15447;50.828;4.406;2023-11-19T08:04:03;33.88;;;5.57;;
28158;SDS011;15447;50.828;4.406;2023-11-19T08:06:32;36.85;;;6.15;;
28158;SDS011;15447;50.828;4.406;2023-11-19T08:08:57;33.47;;;5.13;;
28158;SDS011;15447;50.828;4.406;2023-11-19T08:11:24;32.25;;;5.35;;
28158;SDS011;15447;50.828;4.406;2023-11-19T08:13:52;28.08;;;5.13;;
28158;SDS011;15447;50.828;4.406;2023-11-19T08:16:18;34.03;;;5.35;;
28158;SDS011;15447;50.828;4.406;2023-11-19T08:18:44;36.03;;;5.65;;
28158;SDS011;15447;50.828;4.406;2023-11-19T08:21:10;30.38;;;5.45;;
28158;SDS011;15447;50.828;4.406;2023-11-19T08:23:36;23.40;;;4.43;;
28158;SDS011;15447;50.828;4.406;2023-11-19T08:26:03;36.08;;;5.65;;
28158;SDS011;15447;50.828;4.406;2023-11-19T08:28:37;28.38;;;4.82;;
28158;SDS011;15447;50.828;4.406;2023-11-19T08:31:04;39.15;;;5.25;;
28158;SDS011;15447;50.828;4.406;2023-11-19T08:33:32;33.25;;;5.30;;
28158;SDS011;15447;50.828;4.406;2023-11-19T08:35:58;38.75;;;5.32;;
28158;SDS011;15447;50.828;4.406;2023-11-19T08:38:26;24.17;;;4.50;;
28158;SDS011;15447;50.828;4.406;2023-11-19T08:40:52;26.20;;;4.57;;
28158;SDS011;15447;50.828;4.406;2023-11-19T08:43:27;33.38;;;5.18;;
28158;SDS011;15447;50.828;4.406;2023-11-19T08:45:57;32.33;;;5.20;;
28158;SDS011;15447;50.828;4.406;2023-11-19T08:48:22;39.85;;;5.30;;
28158;SDS011;15447;50.828;4.406;2023-11-19T08:50:51;32.45;;;4.75;;
28158;SDS011;15447;50.828;4.406;2023-11-19T08:53:17;42.50;;;5.90;;
28158;SDS011;15447;50.828;4.406;2023-11-19T08:55:43;32.70;;;5.53;;
28158;SDS011;15447;50.828;4.406;2023-11-19T08:58:11;28.15;;;4.90;;
28158;SDS011;15447;50.828;4.406;2023-11-19T09:00:37;27.17;;;5.25;;
28158;SDS011;15447;50.828;4.406;2023-11-19T09:03:03;43.92;;;5.30;;
28158;SDS011;15447;50.828;4.406;2023-11-19T09:05:29;31.92;;;4.85;;
28158;SDS011;15447;50.828;4.406;2023-11-19T09:07:54;34.85;;;5.15;;
28158;SDS011;15447;50.828;4.406;2023-11-19T09:10:22;26.42;;;4.05;;
28158;SDS011;15447;50.828;4.406;2023-11-19T09:12:48;32.20;;;4.60;;
28158;SDS011;15447;50.828;4.406;2023-11-19T09:15:17;26.17;;;4.07;;
28158;SDS011;15447;50.828;4.406;2023-11-19T09:17:43;27.75;;;4.90;;
28158;SDS011;15447;50.828;4.406;2023-11-19T09:22:40;31.63;;;5.10;;
28158;SDS011;15447;50.828;4.406;2023-11-19T09:25:09;33.60;;;5.20;;
28158;SDS011;15447;50.828;4.406;2023-11-19T09:27:34;36.40;;;4.93;;
28158;SDS011;15447;50.828;4.406;2023-11-19T09:30:00;26.38;;;4.20;;
28158;SDS011;15447;50.828;4.406;2023-11-19T09:32:26;24.67;;;4.57;;
28158;SDS011;15447;50.828;4.406;2023-11-19T09:34:54;25.00;;;4.28;;
28158;SDS011;15447;50.828;4.406;2023-11-19T09:37:20;22.55;;;4.00;;
28158;SDS011;15447;50.828;4.406;2023-11-19T09:39:51;26.92;;;4.78;;
28158;SDS011;15447;50.828;4.406;2023-11-19T09:42:16;25.10;;;4.68;;
28158;SDS011;15447;50.828;4.406;2023-11-19T09:44:43;24.38;;;3.67;;
28158;SDS011;15447;50.828;4.406;2023-11-19T09:47:08;22.17;;;3.97;;
28158;SDS011;15447;50.828;4.406;2023-11-19T09:49:40;21.52;;;3.85;;
28158;SDS011;15447;50.828;4.406;2023-11-19T09:52:06;23.15;;;4.22;;
28158;SDS011;15447;50.828;4.406;2023-11-19T09:54:35;21.77;;;4.28;;
28158;SDS011;15447;50.828;4.406;2023-11-19T09:57:01;30.85;;;4.97;;
28158;SDS011;15447;50.828;4.406;2023-11-19T09:59:31;27.58;;;5.35;;
28158;SDS011;15447;50.828;4.406;2023-11-19T10:01:58;26.50;;;4.20;;
28158;SDS011;15447;50.828;4.406;2023-11-19T10:04:24;21.00;;;4.63;;
28158;SDS011;15447;50.828;4.406;2023-11-19T10:06:54;25.60;;;4.50;;
28158;SDS011;15447;50.828;4.406;2023-11-19T10:09:20;28.13;;;5.25;;
28158;SDS011;15447;50.828;4.406;2023-11-19T10:11:45;23.90;;;4.13;;
28158;SDS011;15447;50.828;4.406;2023-11-19T10:14:11;24.17;;;4.25;;
28158;SDS011;15447;50.828;4.406;2023-11-19T10:16:38;26.63;;;4.55;;
28158;SDS011;15447;50.828;4.406;2023-11-19T10:19:04;20.75;;;4.40;;
28158;SDS011;15447;50.828;4.406;2023-11-19T10:21:32;26.15;;;5.28;;
28158;SDS011;15447;50.828;4.406;2023-11-19T10:23:58;28.88;;;4.88;;
28158;SDS011;15447;50.828;4.406;2023-11-19T10:26:27;27.42;;;4.68;;
28158;SDS011;15447;50.828;4.406;2023-11-19T10:28:53;19.48;;;4.38;;
28158;SDS011;15447;50.828;4.406;2023-11-19T10:31:21;21.63;;;4.28;;
28158;SDS011;15447;50.828;4.406;2023-11-19T10:33:53;24.13;;;3.90;;
28158;SDS011;15447;50.828;4.406;2023-11-19T10:36:19;26.40;;;4.97;;
28158;SDS011;15447;50.828;4.406;2023-11-19T10:38:54;26.13;;;4.90;;
28158;SDS011;15447;50.828;4.406;2023-11-19T10:41:28;23.15;;;4.25;;
28158;SDS011;15447;50.828;4.406;2023-11-19T10:43:57;21.75;;;3.80;;
28158;SDS011;15447;50.828;4.406;2023-11-19T10:46:23;14.40;;;3.20;;
28158;SDS011;15447;50.828;4.406;2023-11-19T10:49:02;16.25;;;3.88;;
28158;SDS011;15447;50.828;4.406;2023-11-19T10:51:28;23.83;;;3.92;;
28158;SDS011;15447;50.828;4.406;2023-11-19T10:53:54;20.48;;;3.80;;
28158;SDS011;15447;50.828;4.406;2023-11-19T10:56:29;19.33;;;4.22;;
28158;SDS011;15447;50.828;4.406;2023-11-19T10:58:55;22.55;;;3.90;;
28158;SDS011;15447;50.828;4.406;2023-11-19T11:01:24;24.33;;;3.63;;
28158;SDS011;15447;50.828;4.406;2023-11-19T11:03:58;24.90;;;4.50;;
28158;SDS011;15447;50.828;4.406;2023-11-19T11:06:25;29.63;;;4.60;;
28158;SDS011;15447;50.828;4.406;2023-11-19T11:08:52;19.58;;;3.80;;
28158;SDS011;15447;50.828;4.406;2023-11-19T11:11:19;24.33;;;4.82;;
28158;SDS011;15447;50.828;4.406;2023-11-19T11:13:46;23.38;;;4.43;;
28158;SDS011;15447;50.828;4.406;2023-11-19T11:16:14;29.58;;;4.60;;
28158;SDS011;15447;50.828;4.406;2023-11-19T11:18:43;28.42;;;5.15;;
28158;SDS011;15447;50.828;4.406;2023-11-19T11:21:14;22.67;;;4.28;;
28158;SDS011;15447;50.828;4.406;2023-11-19T11:27:07;30.95;;;4.82;;
28158;SDS011;15447;50.828;4.406;2023-11-19T11:32:51;33.20;;;4.97;;
28158;SDS011;15447;50.828;4.406;2023-11-19T11:38:10;28.30;;;5.35;;
28158;SDS011;15447;50.828;4.406;2023-11-19T11:40:36;23.95;;;5.22;;
28158;SDS011;15447;50.828;4.406;2023-11-19T11:43:02;30.02;;;4.45;;
28158;SDS011;15447;50.828;4.406;2023-11-19T11:45:40;23.42;;;4.43;;
28158;SDS011;15447;50.828;4.406;2023-11-19T11:48:20;26.15;;;4.75;;
28158;SDS011;15447;50.828;4.406;2023-11-19T11:50:49;26.35;;;4.28;;
28158;SDS011;15447;50.828;4.406;2023-11-19T11:53:17;26.75;;;4.88;;
28158;SDS011;15447;50.828;4.406;2023-11-19T11:58:19;23.70;;;4.43;;
28158;SDS011;15447;50.828;4.406;2023-11-19T12:00:52;21.23;;;4.85;;
28158;SDS011;15447;50.828;4.406;2023-11-19T12:03:21;21.80;;;3.75;;
28158;SDS011;15447;50.828;4.406;2023-11-19T12:05:49;23.40;;;4.15;;
28158;SDS011;15447;50.828;4.406;2023-11-19T12:08:15;23.35;;;4.65;;
28158;SDS011;15447;50.828;4.406;2023-11-19T12:10:50;25.80;;;4.88;;
28158;SDS011;15447;50.828;4.406;2023-11-19T12:13:17;25.20;;;4.03;;
28158;SDS011;15447;50.828;4.406;2023-11-19T12:20:53;22.15;;;3.83;;
28158;SDS011;15447;50.828;4.406;2023-11-19T12:23:19;19.85;;;4.03;;
28158;SDS011;15447;50.828;4.406;2023-11-19T12:25:45;25.75;;;4.53;;
28158;SDS011;15447;50.828;4.406;2023-11-19T12:28:12;25.73;;;4.20;;
28158;SDS011;15447;50.828;4.406;2023-11-19T12:30:39;26.17;;;4.57;;
28158;SDS011;15447;50.828;4.406;2023-11-19T12:33:08;20.77;;;3.97;;
28158;SDS011;15447;50.828;4.406;2023-11-19T12:35:44;27.55;;;3.97;;
28158;SDS011;15447;50.828;4.406;2023-11-19T12:38:20;25.45;;;3.78;;
28158;SDS011;15447;50.828;4.406;2023-11-19T12:40:46;26.25;;;5.40;;
28158;SDS011;15447;50.828;4.406;2023-11-19T12:43:21;25.77;;;4.40;;
28158;SDS011;15447;50.828;4.406;2023-11-19T12:45:47;24.20;;;5.05;;
28158;SDS011;15447;50.828;4.406;2023-11-19T12:48:13;28.45;;;5.07;;
28158;SDS011;15447;50.828;4.406;2023-11-19T12:50:52;34.03;;;5.50;;
28158;SDS011;15447;50.828;4.406;2023-11-19T12:53:26;25.75;;;4.30;;
28158;SDS011;15447;50.828;4.406;2023-11-19T12:55:54;30.98;;;5.28;;
28158;SDS011;15447;50.828;4.406;2023-11-19T12:58:35;27.52;;;3.97;;
28158;SDS011;15447;50.828;4.406;2023-11-19T13:01:05;28.40;;;5.78;;
28158;SDS011;15447;50.828;4.406;2023-11-19T13:03:35;30.63;;;6.10;;
28158;SDS011;15447;50.828;4.406;2023-11-19T13:06:06;25.88;;;5.05;;
28158;SDS011;15447;50.828;4.406;2023-11-19T13:08:40;29.65;;;5.63;;
28158;SDS011;15447;50.828;4.406;2023-11-19T13:11:08;27.17;;;5.30;;
28158;SDS011;15447;50.828;4.406;2023-11-19T13:13:53;29.10;;;5.93;;
28158;SDS011;15447;50.828;4.406;2023-11-19T13:16:35;30.48;;;4.97;;
28158;SDS011;15447;50.828;4.406;2023-11-19T13:19:02;33.85;;;5.80;;
28158;SDS011;15447;50.828;4.406;2023-11-19T13:21:27;30.48;;;5.10;;
28158;SDS011;15447;50.828;4.406;2023-11-19T13:23:54;28.05;;;4.93;;
28158;SDS011;15447;50.828;4.406;2023-11-19T13:26:20;36.25;;;4.75;;
28158;SDS011;15447;50.828;4.406;2023-11-19T13:28:46;29.85;;;4.95;;
28158;SDS011;15447;50.828;4.406;2023-11-19T13:31:12;28.63;;;4.97;;
28158;SDS011;15447;50.828;4.406;2023-11-19T13:33:37;28.13;;;5.35;;
28158;SDS011;15447;50.828;4.406;2023-11-19T13:36:03;20.95;;;5.05;;
28158;SDS011;15447;50.828;4.406;2023-11-19T13:38:35;24.88;;;5.07;;
28158;SDS011;15447;50.828;4.406;2023-11-19T13:41:05;22.40;;;4.38;;
28158;SDS011;15447;50.828;4.406;2023-11-19T13:43:30;32.90;;;6.25;;
28158;SDS011;15447;50.828;4.406;2023-11-19T13:45:56;30.58;;;5.30;;
28158;SDS011;15447;50.828;4.406;2023-11-19T13:48:25;21.17;;;3.85;;
28158;SDS011;15447;50.828;4.406;2023-11-19T13:50:54;29.58;;;4.72;;
28158;SDS011;15447;50.828;4.406;2023-11-19T13:53:20;25.85;;;4.30;;
28158;SDS011;15447;50.828;4.406;2023-11-19T13:55:46;29.58;;;4.65;;
28158;SDS011;15447;50.828;4.406;2023-11-19T13:58:15;32.47;;;5.22;;
28158;SDS011;15447;50.828;4.406;2023-11-19T14:00:41;29.85;;;5.13;;
28158;SDS011;15447;50.828;4.406;2023-11-19T14:03:08;33.22;;;5.05;;
28158;SDS011;15447;50.828;4.406;2023-11-19T14:05:35;28.45;;;5.32;;
28158;SDS011;15447;50.828;4.406;2023-11-19T14:08:01;29.52;;;5.45;;
28158;SDS011;15447;50.828;4.406;2023-11-19T14:10:26;29.42;;;4.53;;
28158;SDS011;15447;50.828;4.406;2023-11-19T14:12:52;37.03;;;6.35;;
28158;SDS011;15447;50.828;4.406;2023-11-19T14:15:17;31.58;;;5.57;;
28158;SDS011;15447;50.828;4.406;2023-11-19T14:17:43;43.70;;;6.35;;
28158;SDS011;15447;50.828;4.406;2023-11-19T14:20:09;33.40;;;5.80;;
28158;SDS011;15447;50.828;4.406;2023-11-19T14:22:44;29.58;;;4.60;;
28158;SDS011;15447;50.828;4.406;2023-11-19T14:25:13;40.97;;;5.05;;
28158;SDS011;15447;50.828;4.406;2023-11-19T14:27:40;29.90;;;6.32;;
28158;SDS011;15447;50.828;4.406;2023-11-19T14:30:08;25.58;;;4.97;;
28158;SDS011;15447;50.828;4.406;2023-11-19T14:32:42;30.17;;;5.40;;
28158;SDS011;15447;50.828;4.406;2023-11-19T14:35:09;36.78;;;5.95;;
28158;SDS011;15447;50.828;4.406;2023-11-19T14:37:35;39.72;;;4.82;;
28158;SDS011;15447;50.828;4.406;2023-11-19T14:40:01;39.55;;;6.25;;
28158;SDS011;15447;50.828;4.406;2023-11-19T14:42:29;29.67;;;4.90;;
28158;SDS011;15447;50.828;4.406;2023-11-19T14:44:55;29.58;;;4.97;;
28158;SDS011;15447;50.828;4.406;2023-11-19T14:47:21;31.08;;;4.93;;
28158;SDS011;15447;50.828;4.406;2023-11-19T14:49:47;31.52;;;5.40;;
28158;SDS011;15447;50.828;4.406;2023-11-19T14:52:13;32.25;;;4.55;;
28158;SDS011;15447;50.828;4.406;2023-11-19T14:54:39;27.52;;;5.40;;
28158;SDS011;15447;50.828;4.406;2023-11-19T14:57:05;34.55;;;5.10;;
28158;SDS011;15447;50.828;4.406;2023-11-19T14:59:33;30.40;;;6.07;;
28158;SDS011;15447;50.828;4.406;2023-11-19T15:01:58;39.33;;;5.95;;
28158;SDS011;15447;50.828;4.406;2023-11-19T15:04:25;29.60;;;4.20;;
28158;SDS011;15447;50.828;4.406;2023-11-19T15:06:51;28.65;;;5.43;;
28158;SDS011;15447;50.828;4.406;2023-11-19T15:09:17;35.28;;;6.50;;
28158;SDS011;15447;50.828;4.406;2023-11-19T15:11:46;37.83;;;5.65;;
28158;SDS011;15447;50.828;4.406;2023-11-19T15:14:14;27.63;;;5.05;;
28158;SDS011;15447;50.828;4.406;2023-11-19T15:16:41;31.08;;;5.10;;
28158;SDS011;15447;50.828;4.406;2023-11-19T15:19:08;32.90;;;5.95;;
28158;SDS011;15447;50.828;4.406;2023-11-19T15:21:34;37.85;;;6.43;;
28158;SDS011;15447;50.828;4.406;2023-11-19T15:24:00;33.30;;;5.75;;
28158;SDS011;15447;50.828;4.406;2023-11-19T15:26:29;32.58;;;6.68;;
28158;SDS011;15447;50.828;4.406;2023-11-19T15:28:55;33.42;;;5.57;;
28158;SDS011;15447;50.828;4.406;2023-11-19T15:31:22;24.77;;;4.88;;
28158;SDS011;15447;50.828;4.406;2023-11-19T15:33:48;32.60;;;6.43;;
28158;SDS011;15447;50.828;4.406;2023-11-19T15:36:14;32.88;;;5.93;;
28158;SDS011;15447;50.828;4.406;2023-11-19T15:38:39;28.15;;;5.07;;
28158;SDS011;15447;50.828;4.406;2023-11-19T15:41:05;29.33;;;4.78;;
28158;SDS011;15447;50.828;4.406;2023-11-19T15:43:32;39.30;;;6.80;;
28158;SDS011;15447;50.828;4.406;2023-11-19T15:45:58;22.70;;;3.72;;
28158;SDS011;15447;50.828;4.406;2023-11-19T15:48:24;25.35;;;4.75;;
28158;SDS011;15447;50.828;4.406;2023-11-19T15:50:50;31.38;;;5.22;;
28158;SDS011;15447;50.828;4.406;2023-11-19T15:53:17;29.58;;;4.22;;
28158;SDS011;15447;50.828;4.406;2023-11-19T15:55:43;28.73;;;4.70;;
28158;SDS011;15447;50.828;4.406;2023-11-19T15:58:09;32.20;;;4.40;;
28158;SDS011;15447;50.828;4.406;2023-11-19T16:00:35;31.42;;;5.93;;
28158;SDS011;15447;50.828;4.406;2023-11-19T16:03:00;32.80;;;5.30;;
28158;SDS011;15447;50.828;4.406;2023-11-19T16:05:26;26.50;;;3.83;;
28158;SDS011;15447;50.828;4.406;2023-11-19T16:07:52;29.02;;;4.82;;
28158;SDS011;15447;50.828;4.406;2023-11-19T16:10:17;34.00;;;5.45;;
28158;SDS011;15447;50.828;4.406;2023-11-19T16:12:45;34.30;;;4.47;;
28158;SDS011;15447;50.828;4.406;2023-11-19T16:15:11;33.50;;;4.78;;
28158;SDS011;15447;50.828;4.406;2023-11-19T16:17:39;32.95;;;5.20;;
28158;SDS011;15447;50.828;4.406;2023-11-19T16:20:06;27.65;;;4.57;;
28158;SDS011;15447;50.828;4.406;2023-11-19T16:22:35;28.40;;;5.28;;
28158;SDS011;15447;50.828;4.406;2023-11-19T16:25:03;28.08;;;5.55;;
28158;SDS011;15447;50.828;4.406;2023-11-19T16:27:29;21.90;;;4.53;;
28158;SDS011;15447;50.828;4.406;2023-11-19T16:29:55;33.92;;;4.93;;
28158;SDS011;15447;50.828;4.406;2023-11-19T16:32:21;36.30;;;5.50;;
28158;SDS011;15447;50.828;4.406;2023-11-19T16:34:47;25.30;;;4.72;;
28158;SDS011;15447;50.828;4.406;2023-11-19T16:37:14;28.98;;;4.38;;
28158;SDS011;15447;50.828;4.406;2023-11-19T16:39:41;28.25;;;4.07;;
28158;SDS011;15447;50.828;4.406;2023-11-19T16:42:07;30.08;;;5.57;;
28158;SDS011;15447;50.828;4.406;2023-11-19T16:44:33;30.20;;;5.30;;
28158;SDS011;15447;50.828;4.406;2023-11-19T16:46:59;29.50;;;4.95;;
28158;SDS011;15447;50.828;4.406;2023-11-19T16:49:25;35.97;;;5.60;;
28158;SDS011;15447;50.828;4.406;2023-11-19T16:51:51;35.08;;;6.05;;
28158;SDS011;15447;50.828;4.406;2023-11-19T16:54:17;33.08;;;6.00;;
28158;SDS011;15447;50.828;4.406;2023-11-19T16:56:43;31.73;;;6.05;;
28158;SDS011;15447;50.828;4.406;2023-11-19T16:59:09;38.20;;;5.20;;
28158;SDS011;15447;50.828;4.406;2023-11-19T17:01:35;34.35;;;5.60;;
28158;SDS011;15447;50.828;4.406;2023-11-19T17:04:02;37.60;;;6.85;;
28158;SDS011;15447;50.828;4.406;2023-11-19T17:06:29;31.02;;;5.60;;
28158;SDS011;15447;50.828;4.406;2023-11-19T17:08:55;33.90;;;5.05;;
28158;SDS011;15447;50.828;4.406;2023-11-19T17:11:21;40.03;;;5.47;;
28158;SDS011;15447;50.828;4.406;2023-11-19T17:13:46;32.42;;;5.05;;
28158;SDS011;15447;50.828;4.406;2023-11-19T17:16:12;31.67;;;5.07;;
28158;SDS011;15447;50.828;4.406;2023-11-19T17:18:37;30.40;;;5.15;;
28158;SDS011;15447;50.828;4.406;2023-11-19T17:21:04;28.92;;;5.75;;
28158;SDS011;15447;50.828;4.406;2023-11-19T17:23:30;25.80;;;5.07;;
28158;SDS011;15447;50.828;4.406;2023-11-19T17:25:59;30.77;;;5.40;;
28158;SDS011;15447;50.828;4.406;2023-11-19T17:28:24;27.48;;;6.00;;
28158;SDS011;15447;50.828;4.406;2023-11-19T17:30:51;36.03;;;5.95;;
28158;SDS011;15447;50.828;4.406;2023-11-19T17:33:17;29.25;;;5.72;;
28158;SDS011;15447;50.828;4.406;2023-11-19T17:35:43;33.83;;;6.20;;
28158;SDS011;15447;50.828;4.406;2023-11-19T17:38:08;38.03;;;6.25;;
28158;SDS011;15447;50.828;4.406;2023-11-19T17:40:34;29.90;;;5.93;;
28158;SDS011;15447;50.828;4.406;2023-11-19T17:42:59;28.85;;;5.10;;
28158;SDS011;15447;50.828;4.406;2023-11-19T17:45:25;29.75;;;5.22;;
28158;SDS011;15447;50.828;4.406;2023-11-19T17:47:54;26.38;;;4.30;;
28158;SDS011;15447;50.828;4.406;2023-11-19T17:50:20;31.67;;;5.40;;
28158;SDS011;15447;50.828;4.406;2023-11-19T17:52:46;31.65;;;4.75;;
28158;SDS011;15447;50.828;4.406;2023-11-19T17:55:12;39.53;;;6.30;;
28158;SDS011;15447;50.828;4.406;2023-11-19T17:57:40;25.80;;;4.32;;
28158;SDS011;15447;50.828;4.406;2023-11-19T18:00:07;31.00;;;5.78;;
28158;SDS011;15447;50.828;4.406;2023-11-19T18:02:38;23.13;;;4.55;;
28158;SDS011;15447;50.828;4.406;2023-11-19T18:05:08;23.65;;;4.75;;
28158;SDS011;15447;50.828;4.406;2023-11-19T18:07:34;25.85;;;4.68;;
28158;SDS011;15447;50.828;4.406;2023-11-19T18:09:59;25.10;;;3.67;;
28158;SDS011;15447;50.828;4.406;2023-11-19T18:12:25;30.08;;;4.40;;
28158;SDS011;15447;50.828;4.406;2023-11-19T18:14:53;32.42;;;5.35;;
28158;SDS011;15447;50.828;4.406;2023-11-19T18:17:19;14.10;;;3.30;;
28158;SDS011;15447;50.828;4.406;2023-11-19T18:19:44;24.50;;;4.07;;
28158;SDS011;15447;50.828;4.406;2023-11-19T18:22:10;18.10;;;3.70;;
28158;SDS011;15447;50.828;4.406;2023-11-19T18:24:36;15.88;;;3.60;;
28158;SDS011;15447;50.828;4.406;2023-11-19T18:27:02;22.73;;;3.20;;
28158;SDS011;15447;50.828;4.406;2023-11-19T18:29:28;18.48;;;3.22;;
28158;SDS011;15447;50.828;4.406;2023-11-19T18:31:54;17.10;;;3.70;;
28158;SDS011;15447;50.828;4.406;2023-11-19T18:34:20;21.55;;;3.63;;
28158;SDS011;15447;50.828;4.406;2023-11-19T18:36:47;14.82;;;3.40;;
28158;SDS011;15447;50.828;4.406;2023-11-19T18:39:13;26.60;;;3.92;;
28158;SDS011;15447;50.828;4.406;2023-11-19T18:41:38;21.30;;;4.13;;
28158;SDS011;15447;50.828;4.406;2023-11-19T18:44:07;26.95;;;4.93;;
28158;SDS011;15447;50.828;4.406;2023-11-19T18:46:33;28.35;;;4.82;;
28158;SDS011;15447;50.828;4.406;2023-11-19T18:48:58;19.58;;;4.25;;
28158;SDS011;15447;50.828;4.406;2023-11-19T18:51:24;23.02;;;4.00;;
28158;SDS011;15447;50.828;4.406;2023-11-19T18:53:51;22.33;;;4.22;;
28158;SDS011;15447;50.828;4.406;2023-11-19T18:56:17;19.85;;;4.63;;
28158;SDS011;15447;50.828;4.406;2023-11-19T18:58:42;25.63;;;4.05;;
28158;SDS011;15447;50.828;4.406;2023-11-19T19:01:09;17.70;;;3.80;;
28158;SDS011;15447;50.828;4.406;2023-11-19T19:03:37;23.85;;;4.43;;
28158;SDS011;15447;50.828;4.406;2023-11-19T19:06:03;18.30;;;3.65;;
28158;SDS011;15447;50.828;4.406;2023-11-19T19:08:30;23.50;;;4.35;;
28158;SDS011;15447;50.828;4.406;2023-11-19T19:10:58;18.77;;;3.72;;
28158;SDS011;15447;50.828;4.406;2023-11-19T19:13:23;22.58;;;3.88;;
28158;SDS011;15447;50.828;4.406;2023-11-19T19:15:50;18.67;;;3.13;;
28158;SDS011;15447;50.828;4.406;2023-11-19T19:18:16;23.88;;;4.43;;
28158;SDS011;15447;50.828;4.406;2023-11-19T19:20:42;23.70;;;3.92;;
28158;SDS011;15447;50.828;4.406;2023-11-19T19:23:09;15.20;;;3.08;;
28158;SDS011;15447;50.828;4.406;2023-11-19T19:25:35;20.38;;;3.97;;
28158;SDS011;15447;50.828;4.406;2023-11-19T19:28:00;17.13;;;3.80;;
28158;SDS011;15447;50.828;4.406;2023-11-19T19:30:26;16.88;;;3.55;;
28158;SDS011;15447;50.828;4.406;2023-11-19T19:32:52;20.58;;;4.07;;
28158;SDS011;15447;50.828;4.406;2023-11-19T19:35:18;19.70;;;3.63;;
28158;SDS011;15447;50.828;4.406;2023-11-19T19:37:45;18.45;;;3.60;;
28158;SDS011;15447;50.828;4.406;2023-11-19T19:40:11;20.70;;;3.33;;
28158;SDS011;15447;50.828;4.406;2023-11-19T19:42:40;26.02;;;4.07;;
28158;SDS011;15447;50.828;4.406;2023-11-19T19:45:06;21.20;;;3.50;;
28158;SDS011;15447;50.828;4.406;2023-11-19T19:47:34;19.27;;;3.10;;
28158;SDS011;15447;50.828;4.406;2023-11-19T19:50:02;20.60;;;3.10;;
28158;SDS011;15447;50.828;4.406;2023-11-19T19:52:28;17.20;;;2.97;;
28158;SDS011;15447;50.828;4.406;2023-11-19T19:54:57;21.65;;;3.33;;
28158;SDS011;15447;50.828;4.406;2023-11-19T19:57:23;29.67;;;3.15;;
28158;SDS011;15447;50.828;4.406;2023-11-19T19:59:48;13.70;;;2.58;;
28158;SDS011;15447;50.828;4.406;2023-11-19T20:02:15;24.50;;;4.10;;
28158;SDS011;15447;50.828;4.406;2023-11-19T20:04:40;26.33;;;3.92;;
28158;SDS011;15447;50.828;4.406;2023-11-19T20:07:08;15.52;;;2.70;;
28158;SDS011;15447;50.828;4.406;2023-11-19T20:09:34;13.00;;;2.85;;
28158;SDS011;15447;50.828;4.406;2023-11-19T20:12:00;23.67;;;3.22;;
28158;SDS011;15447;50.828;4.406;2023-11-19T20:14:26;13.20;;;3.30;;
28158;SDS011;15447;50.828;4.406;2023-11-19T20:16:55;13.35;;;3.05;;
28158;SDS011;15447;50.828;4.406;2023-11-19T20:19:21;18.88;;;3.28;;
28158;SDS011;15447;50.828;4.406;2023-11-19T20:21:46;22.60;;;3.90;;
28158;SDS011;15447;50.828;4.406;2023-11-19T20:24:12;18.27;;;3.33;;
28158;SDS011;15447;50.828;4.406;2023-11-19T20:26:38;24.80;;;4.13;;
28158;SDS011;15447;50.828;4.406;2023-11-19T20:29:05;18.65;;;3.88;;
28158;SDS011;15447;50.828;4.406;2023-11-19T20:31:31;20.40;;;3.50;;
28158;SDS011;15447;50.828;4.406;2023-11-19T20:33:57;23.92;;;3.70;;
28158;SDS011;15447;50.828;4.406;2023-11-19T20:36:22;16.77;;;2.85;;
28158;SDS011;15447;50.828;4.406;2023-11-19T20:38:48;19.63;;;3.15;;
28158;SDS011;15447;50.828;4.406;2023-11-19T20:41:17;17.00;;;3.13;;
28158;SDS011;15447;50.828;4.406;2023-11-19T20:43:43;17.20;;;3.63;;
28158;SDS011;15447;50.828;4.406;2023-11-19T20:46:11;23.10;;;6.35;;
28158;SDS011;15447;50.828;4.406;2023-11-19T20:48:36;23.95;;;5.78;;
28158;SDS011;15447;50.828;4.406;2023-11-19T20:51:02;22.55;;;4.78;;
28158;SDS011;15447;50.828;4.406;2023-11-19T20:53:28;27.67;;;7.72;;
28158;SDS011;15447;50.828;4.406;2023-11-19T20:55:54;21.95;;;6.22;;
28158;SDS011;15447;50.828;4.406;2023-11-19T20:58:19;18.27;;;4.47;;
28158;SDS011;15447;50.828;4.406;2023-11-19T21:00:45;20.75;;;6.10;;
28158;SDS011;15447;50.828;4.406;2023-11-19T21:03:11;20.17;;;6.18;;
28158;SDS011;15447;50.828;4.406;2023-11-19T21:05:39;32.60;;;8.27;;
28158;SDS011;15447;50.828;4.406;2023-11-19T21:08:05;18.23;;;5.07;;
28158;SDS011;15447;50.828;4.406;2023-11-19T21:10:31;24.63;;;5.55;;
28158;SDS011;15447;50.828;4.406;2023-11-19T21:12:57;18.73;;;5.18;;
28158;SDS011;15447;50.828;4.406;2023-11-19T21:15:23;55.03;;;16.98;;
28158;SDS011;15447;50.828;4.406;2023-11-19T21:17:49;25.95;;;8.07;;
28158;SDS011;15447;50.828;4.406;2023-11-19T21:20:15;16.58;;;4.95;;
28158;SDS011;15447;50.828;4.406;2023-11-19T21:22:42;26.80;;;9.07;;